Time;durP1;ratioP1;P1;durP2;ratioP2;P2;SDS_P1;SDS_P2;PMS_P1;PMS_P2;Temp;Humidity;BMP_temperature;BMP_pressure;BME280_temperature;BME280_humidity;BME280_pressure;Samples;Min_cycle;Max_cycle;Signal;HPM_P1;HPM_P2
2022/12/06 00:02:06;;;;;;;12.85;4.50;;;8.30;99.90;;;;;;5032125;28;20487;-62
2022/12/06 00:04:32;;;;;;;13.38;4.97;;;8.30;99.90;;;;;;5031687;28;20398;-64
2022/12/06 00:06:58;;;;;;;11.82;4.80;;;8.30;99.90;;;;;;5031877;28;20623;-63
2022/12/06 00:09:27;;;;;;;14.52;4.70;;;8.20;99.90;;;;;;5031780;28;20065;-63
2022/12/06 00:11:53;;;;;;;11.95;4.70;;;8.20;99.90;;;;;;5031748;28;20029;-64
2022/12/06 00:14:20;;;;;;;12.05;5.25;;;8.20;99.90;;;;;;5031533;28;20021;-62
2022/12/06 00:16:46;;;;;;;15.45;4.85;;;8.20;99.90;;;;;;5031264;28;20060;-63
2022/12/06 00:19:15;;;;;;;13.05;4.78;;;8.20;99.90;;;;;;5031677;28;20060;-65
2022/12/06 00:21:41;;;;;;;13.05;5.22;;;8.30;99.90;;;;;;5031736;28;20024;-63
2022/12/06 00:24:12;;;;;;;14.45;5.03;;;8.30;99.90;;;;;;5031421;28;20032;-63
2022/12/06 00:26:41;;;;;;;12.35;5.05;;;8.20;99.90;;;;;;5031518;28;20052;-64
2022/12/06 00:29:10;;;;;;;12.60;4.07;;;8.20;99.90;;;;;;5031272;28;20183;-64
2022/12/06 00:31:36;;;;;;;13.27;5.18;;;8.20;99.90;;;;;;5031535;28;20032;-64
2022/12/06 00:34:03;;;;;;;12.88;4.75;;;8.20;99.90;;;;;;5031552;28;20081;-63
2022/12/06 00:36:31;;;;;;;13.02;4.75;;;8.20;99.90;;;;;;5031468;28;20018;-64
2022/12/06 00:39:09;;;;;;;16.33;4.30;;;8.20;99.90;;;;;;5031175;28;20022;-63
2022/12/06 00:41:34;;;;;;;10.48;4.82;;;8.30;99.90;;;;;;5031436;28;20021;-63
2022/12/06 00:44:00;;;;;;;10.70;4.07;;;8.30;99.90;;;;;;5031230;28;20033;-63
2022/12/06 00:46:29;;;;;;;10.95;5.28;;;8.30;99.90;;;;;;5031332;28;20025;-64
2022/12/06 00:48:56;;;;;;;12.40;4.38;;;8.30;99.90;;;;;;5030361;28;20482;-64
2022/12/06 00:51:23;;;;;;;10.68;4.25;;;8.30;99.90;;;;;;5031040;28;20559;-65
2022/12/06 00:53:49;;;;;;;8.65;4.32;;;8.30;99.90;;;;;;5031289;28;20087;-64
2022/12/06 00:56:16;;;;;;;13.02;5.05;;;8.30;99.90;;;;;;5031373;28;20087;-64
2022/12/06 00:58:43;;;;;;;12.82;4.63;;;8.30;99.90;;;;;;5030995;28;20028;-64
2022/12/06 01:01:14;;;;;;;8.82;4.20;;;8.30;85.50;;;;;;5031004;28;20022;-63
2022/12/06 01:03:41;;;;;;;14.68;4.50;;;8.30;44.00;;;;;;5031037;28;20024;-64
2022/12/06 01:06:10;;;;;;;14.25;5.07;;;8.20;18.80;;;;;;5030830;28;20482;-64
2022/12/06 01:08:37;;;;;;;12.38;4.68;;;8.10;19.00;;;;;;5031164;28;20061;-64
2022/12/06 01:11:03;;;;;;;10.02;4.03;;;8.00;34.10;;;;;;5030933;28;20022;-64
2022/12/06 01:13:30;;;;;;;13.18;4.32;;;8.00;44.80;;;;;;5031041;28;20030;-64
2022/12/06 01:15:56;;;;;;;14.38;4.50;;;8.00;65.10;;;;;;5030754;28;20050;-64
2022/12/06 01:18:22;;;;;;;15.57;4.45;;;8.00;82.90;;;;;;5030927;28;20445;-65
2022/12/06 01:20:48;;;;;;;14.68;4.70;;;8.00;89.80;;;;;;5030843;28;20140;-64
2022/12/06 01:23:14;;;;;;;12.48;4.40;;;8.00;99.50;;;;;;5030903;28;20114;-64
2022/12/06 01:25:50;;;;;;;10.95;3.97;;;8.10;99.90;;;;;;5030929;28;20041;-64
2022/12/06 01:28:16;;;;;;;12.23;4.22;;;8.20;98.50;;;;;;5030632;28;20076;-64
2022/12/06 01:30:41;;;;;;;13.45;5.00;;;8.20;94.90;;;;;;5030765;28;20160;-63
2022/12/06 01:33:07;;;;;;;12.35;3.90;;;8.20;97.20;;;;;;5030733;28;20668;-63
2022/12/06 01:35:33;;;;;;;10.98;3.75;;;8.20;94.10;;;;;;5030604;28;20025;-64
2022/12/06 01:37:58;;;;;;;14.07;4.80;;;8.30;85.80;;;;;;5030932;28;20033;-64
2022/12/06 01:40:24;;;;;;;14.75;4.55;;;8.30;59.20;;;;;;5030550;28;20496;-63
2022/12/06 01:42:49;;;;;;;11.75;4.25;;;8.30;38.20;;;;;;5030697;28;20359;-64
2022/12/06 01:45:15;;;;;;;13.75;4.07;;;8.30;23.60;;;;;;5030675;28;20080;-63
2022/12/06 01:47:42;;;;;;;16.50;4.70;;;8.30;13.00;;;;;;5029260;28;20029;-64
2022/12/06 01:50:20;;;;;;;12.25;4.28;;;8.40;1.00;;;;;;5030427;28;20033;-64
2022/12/06 01:53:02;;;;;;;10.15;4.18;;;8.30;1.00;;;;;;5030627;28;20022;-64
2022/12/06 01:55:31;;;;;;;6.90;3.78;;;8.30;1.00;;;;;;5029550;28;20099;-65
2022/12/06 01:58:01;;;;;;;9.00;3.88;;;8.20;1.00;;;;;;5029033;28;20085;-64
2022/12/06 02:00:27;;;;;;;7.60;3.70;;;8.20;1.00;;;;;;5031215;28;20022;-64
2022/12/06 02:02:58;;;;;;;10.85;4.03;;;8.00;1.00;;;;;;5034142;28;20025;-64
2022/12/06 02:05:24;;;;;;;12.00;3.88;;;7.80;1.00;;;;;;5034093;28;20029;-64
2022/12/06 02:07:51;;;;;;;14.20;4.43;;;7.60;1.00;;;;;;5034114;28;20036;-64
2022/12/06 02:10:18;;;;;;;7.85;3.90;;;7.50;1.00;;;;;;5033928;28;20029;-64
2022/12/06 02:12:44;;;;;;;12.82;4.43;;;7.40;1.00;;;;;;5033926;28;20029;-65
2022/12/06 02:15:10;;;;;;;11.40;3.85;;;7.30;1.00;;;;;;5033753;28;20083;-64
2022/12/06 02:18:03;;;;;;;10.77;4.05;;;7.30;47.90;;;;;;5034022;28;20088;-66
2022/12/06 02:20:33;;;;;;;9.50;3.70;;;7.30;98.60;;;;;;5033781;28;20030;-63
2022/12/06 02:23:46;;;;;;;11.07;3.47;;;7.20;99.90;;;;;;5033859;28;20087;-62
2022/12/06 02:26:18;;;;;;;9.55;3.83;;;7.20;99.90;;;;;;5042605;28;20021;-62
2022/12/06 02:29:09;;;;;;;8.50;4.20;;;7.30;99.90;;;;;;5034323;28;20033;-62
2022/12/06 02:31:44;;;;;;;11.30;4.22;;;7.50;99.90;;;;;;5042356;28;20449;-62
2022/12/06 02:34:18;;;;;;;14.50;3.90;;;7.60;99.90;;;;;;5053617;28;20021;-63
2022/12/06 02:37:08;;;;;;;12.20;4.70;;;7.60;99.90;;;;;;5053469;28;20028;-63
2022/12/06 02:39:46;;;;;;;16.85;4.28;;;7.60;99.90;;;;;;5053440;28;20469;-63
2022/12/06 02:42:18;;;;;;;10.73;4.28;;;7.60;99.90;;;;;;5052488;28;20025;-62
2022/12/06 02:44:46;;;;;;;;;;;7.40;85.60;;;;;;5036663;28;20025;-62
2022/12/06 02:47:14;;;;;;;10.15;4.05;;;7.20;51.80;;;;;;5033559;28;19915;-61
2022/12/06 02:49:45;;;;;;;14.55;4.50;;;7.10;51.50;;;;;;5032293;28;20037;-62
2022/12/06 02:52:12;;;;;;;13.27;4.20;;;7.00;55.60;;;;;;5033401;28;20437;-63
2022/12/06 02:54:40;;;;;;;9.43;3.83;;;6.90;73.70;;;;;;5033333;28;20056;-62
2022/12/06 02:57:06;;;;;;;12.63;4.75;;;6.80;99.90;;;;;;5032941;28;20071;-63
2022/12/06 02:59:32;;;;;;;13.80;5.20;;;6.80;99.90;;;;;;5033696;28;20030;-63
2022/12/06 03:02:01;;;;;;;12.70;5.00;;;6.70;99.90;;;;;;5033112;28;20390;-62
2022/12/06 03:05:13;;;;;;;10.30;4.07;;;6.70;99.90;;;;;;5033002;28;20087;-62
2022/12/06 03:07:45;;;;;;;9.32;4.10;;;6.60;99.90;;;;;;5030275;28;20029;-62
2022/12/06 03:10:26;;;;;;;12.27;4.10;;;6.60;99.90;;;;;;5032402;28;20046;-63
2022/12/06 03:13:12;;;;;;;10.25;4.47;;;6.60;99.90;;;;;;5031931;28;20494;-63
2022/12/06 03:15:57;;;;;;;13.40;4.10;;;6.50;99.90;;;;;;5033265;28;20047;-61
2022/12/06 03:18:32;;;;;;;11.40;4.00;;;6.50;99.90;;;;;;5031420;28;20026;-63
2022/12/06 03:21:08;;;;;;;11.10;4.53;;;6.50;99.90;;;;;;5032510;28;20406;-63
2022/12/06 03:23:40;;;;;;;13.23;4.00;;;6.40;99.90;;;;;;5032516;28;20052;-63
2022/12/06 03:26:11;;;;;;;13.82;3.95;;;6.40;99.90;;;;;;5032597;28;20132;-62
2022/12/06 03:28:38;;;;;;;10.57;4.75;;;6.40;99.90;;;;;;5032341;28;20505;-63
2022/12/06 03:31:09;;;;;;;8.80;4.03;;;6.50;99.90;;;;;;5032379;28;20490;-64
2022/12/06 03:33:41;;;;;;;15.13;4.25;;;6.40;99.90;;;;;;5033085;28;20024;-62
2022/12/06 03:36:09;;;;;;;14.10;4.30;;;6.30;99.90;;;;;;5032424;28;20080;-63
2022/12/06 03:38:44;;;;;;;13.68;4.40;;;6.30;99.90;;;;;;5032461;28;20021;-63
2022/12/06 03:41:13;;;;;;;16.10;4.70;;;6.20;99.90;;;;;;5032088;28;20035;-62
2022/12/06 03:43:39;;;;;;;11.52;3.90;;;6.20;99.90;;;;;;5032363;28;20026;-63
2022/12/06 03:46:15;;;;;;;11.77;3.90;;;6.20;99.90;;;;;;5032153;28;20036;-63
2022/12/06 03:49:19;;;;;;;13.02;4.25;;;6.20;99.90;;;;;;5031992;28;20040;-63
2022/12/06 03:51:46;;;;;;;9.68;4.07;;;6.20;99.90;;;;;;5031781;28;20029;-63
2022/12/06 03:54:11;;;;;;;18.17;4.18;;;6.20;1.00;;;;;;5032111;28;20104;-62
2022/12/06 03:56:38;;;;;;;12.25;3.67;;;6.20;1.00;;;;;;5032110;28;20108;-63
2022/12/06 03:59:05;;;;;;;11.20;3.80;;;6.20;1.00;;;;;;5031894;28;20057;-63
2022/12/06 04:01:30;;;;;;;8.45;3.88;;;6.10;1.00;;;;;;5031794;28;20477;-62
2022/12/06 04:03:56;;;;;;;8.30;3.75;;;6.10;1.00;;;;;;5032024;28;20028;-63
2022/12/06 04:06:22;;;;;;;8.98;4.15;;;6.10;1.00;;;;;;5032561;28;20029;-63
2022/12/06 04:08:48;;;;;;;7.47;3.75;;;6.10;1.00;;;;;;5051579;28;20033;-63
2022/12/06 04:11:13;;;;;;;12.75;4.28;;;6.10;1.00;;;;;;5051681;28;20071;-62
2022/12/06 04:13:40;;;;;;;8.95;3.92;;;;;;;;;;5051589;28;20102;-63
2022/12/06 04:18:09;;;;;;;14.45;4.35;;;6.10;44.10;;;;;;5032562;28;20450;-63
2022/12/06 04:18:54;;;;;;;9.82;4.15;;;6.00;64.40;;;;;;5031583;28;20025;-64
2022/12/06 04:23:59;;;;;;;11.18;3.80;;;6.00;66.90;;;;;;5031231;28;20022;-63
2022/12/06 04:26:25;;;;;;;10.25;4.15;;;6.00;58.20;;;;;;5031540;28;20041;-63
2022/12/06 04:39:53;;;;;;;10.75;3.90;;;5.80;99.90;;;;;;5031572;28;20516;-64
2022/12/06 04:45:04;;;;;;;14.02;4.00;;;5.80;99.90;;;;;;5031596;28;20028;-63
2022/12/06 04:47:30;;;;;;;13.20;4.03;;;5.80;99.90;;;;;;5031494;28;20026;-64
2022/12/06 04:49:55;;;;;;;10.55;4.97;;;5.70;99.90;;;;;;5031115;28;20600;-64
2022/12/06 04:52:21;;;;;;;10.82;4.03;;;5.70;99.90;;;;;;5031243;28;20033;-64
2022/12/06 04:54:47;;;;;;;10.20;3.70;;;5.70;99.90;;;;;;5031094;28;20040;-64
2022/12/06 04:57:14;;;;;;;7.10;3.58;;;5.70;99.90;;;;;;5030774;28;20021;-62
2022/12/06 04:59:42;;;;;;;15.65;4.20;;;5.70;99.90;;;;;;5031043;28;20057;-63
2022/12/06 05:02:11;;;;;;;11.85;3.97;;;5.70;99.90;;;;;;5031142;28;20026;-63
2022/12/06 05:04:37;;;;;;;11.68;4.38;;;5.70;99.90;;;;;;5030889;28;20497;-63
2022/12/06 05:07:03;;;;;;;9.68;3.78;;;5.70;99.90;;;;;;5031137;28;20029;-63
2022/12/06 05:09:29;;;;;;;13.43;3.88;;;5.70;99.90;;;;;;5030860;28;20045;-63
2022/12/06 05:11:54;;;;;;;10.77;4.10;;;5.70;99.90;;;;;;5030799;28;20029;-63
2022/12/06 05:14:20;;;;;;;13.45;4.47;;;5.70;99.90;;;;;;5030962;28;20105;-63
2022/12/06 05:16:46;;;;;;;11.25;4.03;;;5.70;99.90;;;;;;5030666;28;20045;-64
2022/12/06 05:19:12;;;;;;;11.35;3.58;;;5.60;99.90;;;;;;5030968;28;20163;-64
2022/12/06 05:21:38;;;;;;;13.23;4.07;;;5.60;99.90;;;;;;5031003;28;20108;-63
2022/12/06 05:24:04;;;;;;;10.50;4.30;;;5.60;99.90;;;;;;5030861;28;20029;-63
2022/12/06 05:26:30;;;;;;;10.00;4.03;;;5.70;99.90;;;;;;5030893;28;20017;-63
2022/12/06 05:28:56;;;;;;;7.97;3.75;;;5.60;99.90;;;;;;5030593;28;20459;-63
2022/12/06 05:31:23;;;;;;;9.23;4.25;;;5.60;99.90;;;;;;5030831;28;20037;-64
2022/12/06 05:33:49;;;;;;;13.73;4.60;;;5.60;99.90;;;;;;5030875;28;20017;-63
2022/12/06 05:36:22;;;;;;;7.30;3.50;;;5.60;99.90;;;;;;5033010;28;20029;-63
2022/12/06 05:38:49;;;;;;;8.52;3.80;;;5.60;99.90;;;;;;5034760;28;20026;-65
2022/12/06 05:41:15;;;;;;;10.27;4.13;;;5.60;99.90;;;;;;5034496;28;20022;-63
2022/12/06 05:43:41;;;;;;;15.00;4.07;;;5.60;99.90;;;;;;5034800;28;20092;-63
2022/12/06 05:46:07;;;;;;;12.40;4.07;;;5.50;99.90;;;;;;5034772;28;20026;-64
2022/12/06 05:48:33;;;;;;;10.82;4.10;;;5.50;99.90;;;;;;5034525;28;20470;-63
2022/12/06 05:50:58;;;;;;;11.68;3.88;;;5.40;99.90;;;;;;5034455;28;20030;-63
2022/12/06 05:53:25;;;;;;;18.17;4.25;;;5.40;99.90;;;;;;5033026;28;20017;-63
2022/12/06 05:55:50;;;;;;;5.50;3.50;;;5.40;99.90;;;;;;5034337;28;20565;-64
2022/12/06 05:58:17;;;;;;;8.52;3.92;;;5.40;99.90;;;;;;5034263;28;20108;-64
2022/12/06 06:00:47;;;;;;;10.35;5.25;;;5.40;99.90;;;;;;5034335;28;20017;-63
2022/12/06 06:03:14;;;;;;;11.63;4.05;;;5.40;99.90;;;;;;5034375;28;20034;-64
2022/12/06 06:05:52;;;;;;;12.23;3.78;;;5.40;99.90;;;;;;5034332;28;20032;-64
2022/12/06 06:08:18;;;;;;;11.20;3.70;;;5.40;99.90;;;;;;5034240;28;20053;-64
2022/12/06 06:10:44;;;;;;;11.05;3.88;;;5.40;99.90;;;;;;5034115;28;20478;-63
2022/12/06 06:13:10;;;;;;;12.68;3.58;;;5.40;99.90;;;;;;5034296;28;20103;-64
2022/12/06 06:15:36;;;;;;;11.23;4.07;;;5.50;99.90;;;;;;5034142;28;20136;-64
2022/12/06 06:18:02;;;;;;;9.07;3.90;;;5.40;99.90;;;;;;5034114;28;20550;-63
2022/12/06 06:20:28;;;;;;;10.32;4.15;;;5.50;99.90;;;;;;5033859;28;20017;-64
2022/12/06 06:22:54;;;;;;;9.75;3.55;;;5.50;99.90;;;;;;5034052;28;20037;-64
2022/12/06 06:25:19;;;;;;;13.07;4.20;;;5.50;99.90;;;;;;5033886;28;20017;-63
2022/12/06 06:27:45;;;;;;;8.85;3.88;;;5.50;99.90;;;;;;5033690;28;20440;-63
2022/12/06 06:30:12;;;;;;;12.18;4.45;;;5.50;99.90;;;;;;5033332;28;20493;-63
2022/12/06 06:32:38;;;;;;;14.05;4.00;;;5.50;99.90;;;;;;5033705;28;20099;-64
2022/12/06 06:35:04;;;;;;;13.40;4.22;;;5.50;99.90;;;;;;5033456;28;20053;-62
2022/12/06 06:37:31;;;;;;;8.07;3.60;;;5.50;99.90;;;;;;5033662;28;20021;-64
2022/12/06 06:39:57;;;;;;;11.38;3.65;;;5.50;99.90;;;;;;5033424;28;20042;-64
2022/12/06 06:42:23;;;;;;;16.33;4.75;;;5.50;99.90;;;;;;5033368;28;20439;-63
2022/12/06 06:44:49;;;;;;;11.57;3.38;;;5.50;99.90;;;;;;5033744;28;20037;-64
2022/12/06 06:47:14;;;;;;;16.38;3.70;;;5.50;99.90;;;;;;5033358;28;20501;-63
2022/12/06 06:49:40;;;;;;;8.70;3.83;;;5.40;99.90;;;;;;5033157;28;20072;-64
2022/12/06 06:52:06;;;;;;;12.20;4.10;;;5.40;99.90;;;;;;5031913;28;20025;-63
2022/12/06 06:54:32;;;;;;;7.78;3.28;;;5.40;99.90;;;;;;5048431;28;20037;-62
2022/12/06 06:56:57;;;;;;;12.02;3.47;;;5.40;99.90;;;;;;5052469;28;20029;-62
2022/12/06 06:59:24;;;;;;;8.10;3.58;;;5.30;99.90;;;;;;5052748;28;20066;-63
2022/12/06 07:01:50;;;;;;;8.20;3.28;;;5.30;99.90;;;;;;5052899;28;20040;-63
2022/12/06 07:04:16;;;;;;;11.57;3.25;;;5.30;99.90;;;;;;5051490;28;20473;-63
2022/12/06 07:06:42;;;;;;;9.70;4.05;;;5.30;99.90;;;;;;5052773;28;20281;-63
2022/12/06 07:09:08;;;;;;;8.15;3.28;;;5.20;99.90;;;;;;5049518;28;20595;-63
2022/12/06 07:11:34;;;;;;;13.60;3.88;;;5.20;99.90;;;;;;5031471;28;20028;-64
2022/12/06 07:14:01;;;;;;;11.70;3.20;;;5.20;99.90;;;;;;5032791;28;20121;-65
2022/12/06 07:16:27;;;;;;;12.02;3.22;;;5.20;99.90;;;;;;5039207;28;20065;-64
2022/12/06 07:18:53;;;;;;;6.72;3.67;;;5.20;99.90;;;;;;5051152;28;20489;-64
2022/12/06 07:21:20;;;;;;;8.60;3.33;;;5.20;99.90;;;;;;5052458;28;20491;-64
2022/12/06 07:23:46;;;;;;;8.68;3.83;;;5.20;99.90;;;;;;5052488;28;20594;-63
2022/12/06 07:26:17;;;;;;;11.18;3.13;;;5.20;99.90;;;;;;5050623;28;20065;-63
2022/12/06 07:28:44;;;;;;;11.90;3.38;;;5.10;99.90;;;;;;5052379;28;20020;-63
2022/12/06 07:31:22;;;;;;;14.85;4.05;;;5.10;99.90;;;;;;5044496;28;20045;-64
2022/12/06 07:33:52;;;;;;;8.93;3.58;;;5.20;99.90;;;;;;5032355;28;20018;-63
2022/12/06 07:36:17;;;;;;;8.07;3.38;;;5.20;99.90;;;;;;5032383;28;20480;-64
2022/12/06 07:38:48;;;;;;;11.68;3.50;;;5.20;99.90;;;;;;5032224;28;20057;-64
2022/12/06 07:46:44;;;;;;;5.22;3.17;;;5.20;99.90;;;;;;5045024;28;20132;-65
2022/12/06 07:49:10;;;;;;;10.90;4.20;;;5.30;99.90;;;;;;5051946;28;20112;-63
2022/12/06 07:51:36;;;;;;;10.43;3.50;;;5.30;99.90;;;;;;5051904;28;20036;-64
2022/12/06 07:54:02;;;;;;;10.55;3.88;;;5.30;99.90;;;;;;5052433;28;20021;-63
2022/12/06 07:56:28;;;;;;;11.60;4.25;;;5.20;99.90;;;;;;5051930;28;20056;-64
2022/12/06 07:58:54;;;;;;;12.80;4.53;;;5.30;99.90;;;;;;5049655;28;20064;-64
2022/12/06 08:01:21;;;;;;;10.45;3.60;;;5.30;99.90;;;;;;5032545;28;20405;-64
2022/12/06 08:03:46;;;;;;;16.23;4.15;;;5.40;99.90;;;;;;5039332;28;20021;-64
2022/12/06 08:06:12;;;;;;;7.80;3.88;;;5.40;99.90;;;;;;5051903;28;20393;-64
2022/12/06 08:08:38;;;;;;;11.05;3.55;;;5.40;99.90;;;;;;5051647;28;20025;-64
2022/12/06 08:11:06;;;;;;;10.55;3.38;;;5.40;99.90;;;;;;5051811;28;20037;-63
2022/12/06 08:13:33;;;;;;;9.07;2.90;;;5.50;99.90;;;;;;5050747;28;20508;-64
2022/12/06 08:15:58;;;;;;;11.07;3.45;;;5.60;1.00;;;;;;5050180;28;20044;-63
2022/12/06 08:18:24;;;;;;;9.35;3.33;;;5.60;1.00;;;;;;5051791;28;20024;-63
2022/12/06 08:20:52;;;;;;;13.48;4.88;;;5.60;1.00;;;;;;5051666;28;20032;-64
2022/12/06 08:23:18;;;;;;;6.78;3.22;;;5.70;1.00;;;;;;5048770;28;20043;-62
2022/12/06 08:25:44;;;;;;;16.48;3.33;;;5.70;1.00;;;;;;5037642;28;20072;-63
2022/12/06 08:28:10;;;;;;;16.63;4.07;;;5.80;1.00;;;;;;5037723;28;20022;-63
2022/12/06 08:30:39;;;;;;;11.75;3.42;;;5.90;1.00;;;;;;5037529;28;20069;-63
2022/12/06 08:33:05;;;;;;;14.68;3.55;;;6.00;1.00;;;;;;5031408;28;20025;-63
2022/12/06 08:35:34;;;;;;;11.82;3.35;;;6.00;1.00;;;;;;5045611;28;20037;-63
2022/12/06 08:38:00;;;;;;;10.13;3.70;;;6.00;1.00;;;;;;5050069;28;20021;-63
2022/12/06 08:40:26;;;;;;;13.45;3.70;;;6.00;1.00;;;;;;5034653;28;20407;-63
2022/12/06 08:42:51;;;;;;;14.27;3.45;;;6.00;1.00;;;;;;5042117;28;20021;-61
2022/12/06 08:45:17;;;;;;;8.68;4.03;;;6.00;1.00;;;;;;5038980;28;20136;-64
2022/12/06 08:47:43;;;;;;;6.95;3.10;;;6.00;1.00;;;;;;5051004;28;20056;-64
2022/12/06 08:50:09;;;;;;;7.82;2.67;;;6.10;1.00;;;;;;5049223;28;20037;-63
2022/12/06 08:52:34;;;;;;;6.00;2.78;;;6.10;1.00;;;;;;5044473;28;20024;-63
2022/12/06 08:55:00;;;;;;;10.82;3.25;;;6.20;1.00;;;;;;5036980;28;20026;-63
2022/12/06 08:57:26;;;;;;;12.93;3.35;;;6.20;1.00;;;;;;5031125;28;20111;-63
2022/12/06 08:59:51;;;;;;;8.70;3.00;;;6.20;1.00;;;;;;5044898;28;20026;-62
2022/12/06 09:02:17;;;;;;;9.88;2.58;;;6.20;1.00;;;;;;5033524;28;20079;-63
2022/12/06 09:04:43;;;;;;;15.75;3.47;;;6.20;99.90;;;;;;5031005;28;20030;-62
2022/12/06 09:07:08;;;;;;;11.27;3.40;;;6.30;99.90;;;;;;5030433;28;20178;-62
2022/12/06 09:09:34;;;;;;;6.13;2.80;;;6.30;99.90;;;;;;5030849;28;20049;-63
2022/12/06 09:11:59;;;;;;;7.15;2.53;;;6.40;99.90;;;;;;5034706;28;20029;-63
2022/12/06 09:14:25;;;;;;;7.20;3.20;;;6.40;99.90;;;;;;5042601;28;20473;-63
2022/12/06 09:16:51;;;;;;;8.18;2.92;;;6.40;99.90;;;;;;5035904;28;20049;-65
2022/12/06 09:19:17;;;;;;;7.35;2.72;;;6.40;99.90;;;;;;5038816;28;20055;-63
2022/12/06 09:21:45;;;;;;;10.52;4.47;;;6.40;99.90;;;;;;5044857;28;20484;-63
2022/12/06 09:24:15;;;;;;;9.65;4.28;;;6.40;99.90;;;;;;5038640;28;20428;-64
2022/12/06 09:26:41;;;;;;;8.15;2.92;;;6.30;99.90;;;;;;5054572;28;20055;-63
2022/12/06 09:29:08;;;;;;;8.38;3.33;;;6.40;99.90;;;;;;5054640;28;20060;-63
2022/12/06 09:31:38;;;;;;;14.25;3.13;;;6.40;99.90;;;;;;5054789;28;20032;-63
2022/12/06 09:34:04;;;;;;;6.90;3.05;;;6.50;99.90;;;;;;5054726;28;20112;-62
2022/12/06 09:36:30;;;;;;;10.90;3.15;;;6.60;95.00;;;;;;5054491;28;20014;-63
2022/12/06 09:39:09;;;;;;;8.80;3.30;;;6.70;67.40;;;;;;5054916;28;20541;-62
2022/12/06 09:41:59;;;;;;;5.28;2.42;;;6.70;17.80;;;;;;5054665;28;20430;-63
2022/12/06 09:44:53;;;;;;;9.65;3.40;;;6.80;1.00;;;;;;5055003;28;20021;-62
2022/12/06 09:48:00;;;;;;;7.38;2.92;;;6.90;99.90;;;;;;5054308;28;20039;-63
2022/12/06 09:50:44;;;;;;;16.30;3.40;;;6.90;99.90;;;;;;5053104;28;20401;-64
2022/12/06 09:53:25;;;;;;;6.55;3.35;;;6.90;99.90;;;;;;5054389;28;20033;-62
2022/12/06 09:56:05;;;;;;;8.10;3.35;;;6.90;99.90;;;;;;5054262;28;20055;-62
2022/12/06 09:58:46;;;;;;;8.57;2.80;;;6.90;99.90;;;;;;5054195;28;20024;-62
2022/12/06 10:01:11;;;;;;;5.07;2.90;;;7.00;99.90;;;;;;5054370;28;20021;-63
2022/12/06 10:04:03;;;;;;;7.18;2.80;;;7.00;99.90;;;;;;5054239;28;20362;-63
2022/12/06 10:06:53;;;;;;;8.40;2.55;;;7.10;72.30;;;;;;5054252;28;20108;-64
2022/12/06 10:09:53;;;;;;;6.78;2.47;;;7.10;24.80;;;;;;5053993;28;20037;-63
2022/12/06 10:12:25;;;;;;;6.05;2.90;;;7.20;1.00;;;;;;5053980;28;20049;-64
2022/12/06 10:15:06;;;;;;;7.35;2.85;;;7.30;1.00;;;;;;5053887;28;20029;-63
2022/12/06 10:17:56;;;;;;;8.38;3.00;;;7.40;1.00;;;;;;5053816;28;20508;-63
2022/12/06 10:20:49;;;;;;;6.05;2.78;;;7.40;99.90;;;;;;5053719;28;20523;-63
2022/12/06 10:23:29;;;;;;;8.77;2.75;;;7.40;99.90;;;;;;5053652;28;20037;-64
2022/12/06 10:26:15;;;;;;;7.85;2.53;;;7.40;99.90;;;;;;5054183;28;20021;-63
2022/12/06 10:29:00;;;;;;;4.28;2.55;;;7.30;99.90;;;;;;5053672;28;20021;-63
2022/12/06 10:31:48;;;;;;;4.60;2.40;;;7.20;99.90;;;;;;5053801;28;20033;-63
2022/12/06 10:34:27;;;;;;;4.45;2.35;;;7.20;99.90;;;;;;5053176;28;20037;-64
2022/12/06 10:37:16;;;;;;;7.32;2.30;;;7.20;99.90;;;;;;5053821;28;20219;-64
2022/12/06 10:40:11;;;;;;;4.28;2.20;;;7.10;99.90;;;;;;5051916;28;20032;-64
2022/12/06 10:42:48;;;;;;;7.50;2.17;;;7.10;99.90;;;;;;5053427;28;20051;-62
2022/12/06 10:48:50;;;;;;;9.07;2.58;;;7.10;99.90;;;;;;5053239;28;20032;-63
2022/12/06 10:51:23;;;;;;;3.65;2.15;;;7.00;99.90;;;;;;5053310;28;20277;-63
2022/12/06 10:53:58;;;;;;;4.43;1.95;;;7.10;99.90;;;;;;5053199;28;20024;-63
2022/12/06 10:56:30;;;;;;;3.35;1.92;;;7.10;99.90;;;;;;5053163;28;20025;-63
2022/12/06 10:59:17;;;;;;;7.22;2.45;;;7.30;99.90;;;;;;5053023;28;20420;-63
2022/12/06 11:01:44;;;;;;;7.85;2.80;;;7.40;99.90;;;;;;5053074;28;20199;-63
2022/12/06 11:04:27;;;;;;;13.55;2.75;;;7.40;99.90;;;;;;5053205;28;20029;-62
2022/12/06 11:06:57;;;;;;;5.53;2.60;;;7.50;99.90;;;;;;5053329;28;20246;-63
2022/12/06 11:09:26;;;;;;;6.70;2.42;;;7.60;99.90;;;;;;5053007;28;20114;-63
2022/12/06 11:11:52;;;;;;;4.57;2.45;;;7.70;99.90;;;;;;5053150;28;20025;-63
2022/12/06 11:14:22;;;;;;;5.57;2.80;;;7.70;99.90;;;;;;5052692;28;20362;-63
2022/12/06 11:17:01;;;;;;;3.95;2.00;;;7.70;99.90;;;;;;5052912;28;20105;-63
2022/12/06 11:19:43;;;;;;;8.02;2.05;;;7.80;99.90;;;;;;5052806;28;20039;-63
2022/12/06 11:22:30;;;;;;;5.53;2.15;;;8.00;99.90;;;;;;5052652;28;20024;-63
2022/12/06 11:25:06;;;;;;;5.95;1.98;;;8.30;99.90;;;;;;5052787;28;20033;-64
2022/12/06 11:27:37;;;;;;;7.50;2.20;;;8.50;99.90;;;;;;5052837;28;20104;-62
2022/12/06 11:30:12;;;;;;;3.03;2.00;;;8.60;99.90;;;;;;5052712;28;20513;-63
2022/12/06 11:32:38;;;;;;;3.45;2.00;;;8.80;99.90;;;;;;5052592;28;20117;-63
2022/12/06 11:35:04;;;;;;;3.83;1.90;;;8.90;99.90;;;;;;5052054;28;20029;-64
2022/12/06 11:37:31;;;;;;;3.08;1.73;;;9.00;99.90;;;;;;5052563;28;20021;-64
2022/12/06 11:40:28;;;;;;;9.73;1.67;;;9.00;99.90;;;;;;5052451;28;20025;-62
2022/12/06 11:42:55;;;;;;;5.25;1.70;;;9.00;99.90;;;;;;5052372;28;20021;-63
2022/12/06 11:45:30;;;;;;;5.53;1.92;;;9.00;99.90;;;;;;5052287;28;20033;-63
2022/12/06 11:47:58;;;;;;;5.28;1.88;;;9.10;99.90;;;;;;5050776;28;20111;-63
2022/12/06 11:50:27;;;;;;;4.75;3.25;;;9.20;99.90;;;;;;5051911;28;20041;-63
2022/12/06 11:53:01;;;;;;;6.32;1.63;;;9.30;99.90;;;;;;5052168;28;20589;-62
2022/12/06 11:55:33;;;;;;;4.88;2.10;;;9.50;99.90;;;;;;5052126;28;20085;-64
2022/12/06 11:58:06;;;;;;;5.53;2.00;;;9.60;99.90;;;;;;5051748;28;20029;-63
2022/12/06 12:00:32;;;;;;;8.35;2.42;;;9.70;99.90;;;;;;5052261;28;20044;-63
2022/12/06 12:02:57;;;;;;;4.45;1.73;;;9.70;99.90;;;;;;5051851;28;20411;-63
2022/12/06 12:05:29;;;;;;;3.83;2.13;;;9.80;99.90;;;;;;5051942;28;20032;-63
2022/12/06 12:08:00;;;;;;;6.35;1.98;;;9.70;99.90;;;;;;5051992;28;20404;-64
2022/12/06 12:10:38;;;;;;;5.93;2.35;;;9.80;99.90;;;;;;5051898;28;20437;-63
2022/12/06 12:13:44;;;;;;;3.70;1.83;;;9.80;99.90;;;;;;5051857;28;20524;-63
2022/12/06 12:16:42;;;;;;;11.63;2.70;;;9.80;99.90;;;;;;5051669;28;20040;-62
2022/12/06 12:19:30;;;;;;;5.53;2.42;;;9.80;99.90;;;;;;5051239;28;20626;-63
2022/12/06 12:22:11;;;;;;;3.33;1.98;;;9.80;99.90;;;;;;5051304;28;20041;-62
2022/12/06 12:24:47;;;;;;;2.95;1.92;;;9.90;99.90;;;;;;5051549;28;20100;-63
2022/12/06 12:27:37;;;;;;;3.88;2.08;;;10.00;99.90;;;;;;5051495;28;20021;-63
2022/12/06 12:30:21;;;;;;;5.68;2.60;;;10.00;99.90;;;;;;5051304;28;20122;-63
2022/12/06 12:33:04;;;;;;;5.45;2.20;;;10.00;99.90;;;;;;5051064;28;20025;-63
2022/12/06 12:35:30;;;;;;;5.53;2.10;;;10.10;99.90;;;;;;5051233;28;20476;-63
2022/12/06 12:38:09;;;;;;;5.45;2.17;;;10.10;99.90;;;;;;5051698;28;20107;-65
2022/12/06 12:40:35;;;;;;;3.92;2.20;;;10.20;99.90;;;;;;5051559;28;20044;-62
2022/12/06 12:43:12;;;;;;;3.53;2.15;;;10.30;99.90;;;;;;5051168;28;20108;-64
2022/12/06 12:45:39;;;;;;;7.25;2.42;;;10.30;99.90;;;;;;5051163;28;20067;-63
2022/12/06 12:48:26;;;;;;;6.20;2.42;;;10.30;99.90;;;;;;5051170;28;20121;-63
2022/12/06 12:51:00;;;;;;;5.55;2.00;;;10.30;99.90;;;;;;5051016;28;20037;-64
2022/12/06 12:53:44;;;;;;;4.22;1.88;;;10.20;99.90;;;;;;5051274;28;20024;-63
2022/12/06 12:56:12;;;;;;;5.30;1.95;;;10.20;99.90;;;;;;5050826;28;20029;-63
2022/12/06 12:58:38;;;;;;;4.78;2.25;;;10.10;99.90;;;;;;5050847;28;20032;-63
2022/12/06 13:01:32;;;;;;;3.13;2.60;;;10.10;99.90;;;;;;5050992;28;20423;-63
2022/12/06 13:04:41;;;;;;;6.85;2.50;;;11.00;99.90;;;;;;5050942;28;20417;-63
2022/12/06 13:07:22;;;;;;;5.25;2.00;;;12.50;99.90;;;;;;5050124;28;20043;-63
2022/12/06 13:10:05;;;;;;;2.58;1.80;;;13.70;99.90;;;;;;5050978;28;20465;-63
2022/12/06 13:12:39;;;;;;;6.30;1.83;;;14.40;99.90;;;;;;5050785;28;20492;-63
2022/12/06 13:15:07;;;;;;;3.88;1.77;;;14.70;99.90;;;;;;5050668;28;20040;-63
2022/12/06 13:17:36;;;;;;;3.25;1.90;;;15.10;99.90;;;;;;5051017;28;20021;-63
2022/12/06 13:20:14;;;;;;;3.58;1.63;;;15.40;99.90;;;;;;5049588;28;20079;-63
2022/12/06 13:22:44;;;;;;;3.92;1.65;;;15.30;99.90;;;;;;5051170;28;20033;-62
2022/12/06 13:25:10;;;;;;;3.50;1.70;;;15.30;99.90;;;;;;5051011;28;20052;-62
2022/12/06 13:27:44;;;;;;;6.13;1.80;;;15.80;99.90;;;;;;5050799;28;20039;-63
2022/12/06 13:30:23;;;;;;;5.72;1.90;;;15.70;99.90;;;;;;5051007;28;20285;-62
2022/12/06 13:32:53;;;;;;;5.75;1.80;;;15.80;99.90;;;;;;5050509;28;20424;-63
2022/12/06 13:35:36;;;;;;;3.38;1.80;;;15.70;99.90;;;;;;5050887;28;20032;-63
2022/12/06 13:38:21;;;;;;;3.00;1.40;;;15.70;99.90;;;;;;5050828;28;20032;-62
2022/12/06 13:41:00;;;;;;;3.72;1.75;;;16.00;99.90;;;;;;5050684;28;20554;-63